Time;durP1;ratioP1;P1;durP2;ratioP2;P2;SDS_P1;SDS_P2;PMS_P1;PMS_P2;Temp;Humidity;BMP_temperature;BMP_pressure;BME280_temperature;BME280_humidity;BME280_pressure;Samples;Min_cycle;Max_cycle;Signal;HPM_P1;HPM_P2
2023/07/05 00:01:52;;;;;;;12.50;8.50;;;18.90;99.90;;;;;;4984177;28;20491;-47
2023/07/05 00:04:20;;;;;;;11.30;7.53;;;18.90;99.90;;;;;;4989428;28;20073;-44
2023/07/05 00:06:52;;;;;;;9.40;8.20;;;18.80;99.90;;;;;;4980663;28;20428;-43
2023/07/05 00:09:20;;;;;;;10.55;8.32;;;18.80;99.90;;;;;;4987944;28;20105;-43
2023/07/05 00:11:47;;;;;;;10.43;8.40;;;18.80;99.90;;;;;;4990148;28;20387;-45
2023/07/05 00:14:14;;;;;;;11.98;8.18;;;18.70;99.90;;;;;;4980246;28;20046;-40
2023/07/05 00:16:42;;;;;;;11.48;8.38;;;18.70;99.90;;;;;;4982380;28;20497;-42
2023/07/05 00:19:10;;;;;;;10.80;8.05;;;18.70;99.90;;;;;;4987806;28;20070;-43
2023/07/05 00:21:37;;;;;;;13.75;8.60;;;18.70;99.90;;;;;;4986983;28;20047;-42
2023/07/05 00:24:05;;;;;;;11.45;7.82;;;18.60;99.90;;;;;;4989409;28;20069;-43
2023/07/05 00:26:32;;;;;;;10.85;8.13;;;18.60;99.90;;;;;;4983230;28;20043;-46
2023/07/05 00:28:59;;;;;;;11.57;7.97;;;18.60;99.90;;;;;;4974823;28;20397;-41
2023/07/05 00:31:27;;;;;;;10.75;8.20;;;18.60;99.90;;;;;;4988742;28;20057;-43
2023/07/05 00:33:54;;;;;;;13.05;8.05;;;18.60;99.90;;;;;;4979349;28;20058;-43
2023/07/05 00:36:22;;;;;;;12.65;8.95;;;18.50;99.90;;;;;;4988794;28;20073;-43
2023/07/05 00:38:49;;;;;;;9.65;7.50;;;18.50;99.90;;;;;;4981865;28;20137;-41
2023/07/05 00:41:17;;;;;;;11.45;8.23;;;18.50;99.90;;;;;;4986611;28;20054;-44
2023/07/05 00:43:48;;;;;;;10.52;7.90;;;18.40;99.90;;;;;;4982328;28;20467;-43
2023/07/05 00:46:24;;;;;;;11.30;8.40;;;18.40;99.90;;;;;;4989957;28;20046;-43
2023/07/05 00:49:08;;;;;;;12.27;8.45;;;18.50;99.90;;;;;;4976364;28;20153;-45
2023/07/05 00:51:59;;;;;;;10.02;8.10;;;18.40;99.90;;;;;;4984966;28;20127;-46
2023/07/05 00:54:38;;;;;;;12.77;9.05;;;18.40;99.90;;;;;;4990477;28;20168;-45
2023/07/05 00:57:08;;;;;;;10.45;8.25;;;18.40;99.90;;;;;;4988741;28;20054;-44
2023/07/05 00:59:42;;;;;;;10.68;7.93;;;18.40;99.90;;;;;;5003976;28;20046;-44
2023/07/05 01:02:09;;;;;;;12.93;8.35;;;18.40;99.90;;;;;;4990008;28;20129;-43
2023/07/05 01:04:37;;;;;;;10.75;7.25;;;18.40;99.90;;;;;;4991903;28;20073;-40
2023/07/05 01:07:04;;;;;;;10.25;8.20;;;18.30;99.90;;;;;;4991364;28;20533;-43
2023/07/05 01:09:32;;;;;;;13.23;8.40;;;18.30;99.90;;;;;;4991455;28;20053;-44
2023/07/05 01:12:26;;;;;;;10.93;8.25;;;18.30;99.90;;;;;;4989534;28;20489;-42
2023/07/05 01:15:28;;;;;;;12.63;8.25;;;18.20;99.90;;;;;;4995091;28;20624;-39
2023/07/05 01:18:05;;;;;;;12.18;8.68;;;18.20;99.90;;;;;;4980359;28;20105;-41
2023/07/05 01:20:38;;;;;;;12.90;9.27;;;18.10;99.90;;;;;;4993113;28;20038;-43
2023/07/05 01:23:24;;;;;;;12.57;8.98;;;18.00;99.90;;;;;;5012599;22;20046;-41
2023/07/05 01:26:13;;;;;;;12.30;8.23;;;17.90;99.90;;;;;;4997119;28;20467;-44
2023/07/05 01:28:43;;;;;;;9.70;8.45;;;17.90;99.90;;;;;;4996037;28;20125;-41
2023/07/05 01:31:31;;;;;;;12.65;8.15;;;17.90;99.90;;;;;;4999526;28;20034;-42
2023/07/05 01:34:25;;;;;;;11.98;9.00;;;17.80;99.90;;;;;;5000279;28;20065;-45
2023/07/05 01:36:53;;;;;;;14.30;9.60;;;17.80;99.90;;;;;;4979825;28;20054;-44
2023/07/05 01:39:20;;;;;;;12.40;8.65;;;17.90;99.90;;;;;;4981646;28;20046;-44
2023/07/05 01:41:48;;;;;;;14.75;8.93;;;17.90;99.90;;;;;;4978262;28;20055;-43
2023/07/05 01:44:16;;;;;;;14.02;8.48;;;17.80;99.90;;;;;;4984654;28;20573;-44
2023/07/05 01:46:56;;;;;;;14.68;8.88;;;17.90;99.90;;;;;;4975645;28;20117;-43
2023/07/05 01:49:36;;;;;;;11.27;8.75;;;17.90;99.90;;;;;;4979495;28;20057;-43
2023/07/05 01:52:15;;;;;;;14.05;9.50;;;18.00;99.90;;;;;;4983138;28;20050;-42
2023/07/05 01:55:12;;;;;;;12.85;9.25;;;18.00;99.90;;;;;;4991292;28;20423;-43
2023/07/05 01:57:56;;;;;;;11.27;8.88;;;18.00;99.90;;;;;;4900690;29;20104;-43
2023/07/05 02:00:25;;;;;;;10.90;8.52;;;17.90;99.90;;;;;;4910280;29;20048;-43
2023/07/05 02:03:01;;;;;;;12.18;8.60;;;17.80;99.90;;;;;;4915980;29;20056;-46
2023/07/05 02:05:32;;;;;;;13.93;8.77;;;17.80;99.90;;;;;;4924222;29;20537;-46
2023/07/05 02:07:59;;;;;;;12.50;9.00;;;17.90;99.90;;;;;;4898792;29;20116;-44
2023/07/05 02:10:27;;;;;;;13.18;9.15;;;17.90;99.90;;;;;;4913368;29;20047;-44
2023/07/05 02:12:56;;;;;;;11.85;8.48;;;17.90;99.90;;;;;;4914712;29;20062;-42
2023/07/05 02:15:26;;;;;;;13.30;8.65;;;17.90;99.90;;;;;;4923383;29;20072;-46
2023/07/05 02:17:53;;;;;;;14.65;8.88;;;17.90;99.90;;;;;;4921994;29;20116;-42
2023/07/05 02:20:21;;;;;;;11.95;8.32;;;17.90;99.90;;;;;;4914047;29;20561;-43
2023/07/05 02:22:48;;;;;;;11.48;8.38;;;17.90;99.90;;;;;;4893570;29;20252;-44
2023/07/05 02:25:15;;;;;;;17.38;8.20;;;17.80;99.90;;;;;;4920847;29;20453;-44
2023/07/05 02:27:43;;;;;;;12.95;8.45;;;17.80;99.90;;;;;;4918319;29;20405;-44
2023/07/05 02:30:13;;;;;;;10.27;7.97;;;17.90;99.90;;;;;;4911906;29;20347;-45
2023/07/05 02:32:43;;;;;;;13.73;8.35;;;17.90;99.90;;;;;;4899655;29;20143;-42
2023/07/05 02:35:14;;;;;;;12.55;8.82;;;17.80;99.90;;;;;;4969255;28;20463;-44
2023/07/05 02:37:41;;;;;;;13.57;8.57;;;17.80;99.90;;;;;;4973953;28;20164;-42
2023/07/05 02:40:08;;;;;;;16.42;7.93;;;17.80;99.90;;;;;;4970082;28;20047;-46
2023/07/05 02:42:36;;;;;;;9.38;7.18;;;17.80;99.90;;;;;;4963167;28;20089;-45
2023/07/05 02:45:04;;;;;;;11.60;6.78;;;17.80;99.90;;;;;;4968235;28;20057;-45
2023/07/05 02:47:31;;;;;;;12.75;7.72;;;17.80;99.90;;;;;;4973789;28;20057;-42
2023/07/05 02:49:58;;;;;;;11.50;7.55;;;17.80;99.90;;;;;;4973928;28;20047;-45
2023/07/05 02:52:26;;;;;;;13.88;7.55;;;17.70;99.90;;;;;;4976685;28;20051;-46
2023/07/05 02:54:53;;;;;;;9.10;6.88;;;17.70;99.90;;;;;;4968852;28;20051;-46
2023/07/05 02:57:21;;;;;;;9.27;7.00;;;17.80;99.90;;;;;;4970287;28;20260;-45
2023/07/05 02:59:48;;;;;;;10.05;7.30;;;17.80;99.90;;;;;;4969499;28;20117;-41
2023/07/05 03:02:16;;;;;;;9.50;6.68;;;17.80;99.90;;;;;;4984475;28;20043;-43
2023/07/05 03:04:43;;;;;;;9.30;6.50;;;17.80;99.90;;;;;;4968397;28;20526;-45
2023/07/05 03:07:10;;;;;;;8.98;6.25;;;17.80;99.90;;;;;;4970480;28;20047;-43
2023/07/05 03:09:38;;;;;;;9.27;5.85;;;17.90;99.90;;;;;;4969561;28;20583;-45
2023/07/05 03:12:06;;;;;;;9.48;6.20;;;17.90;99.90;;;;;;4968748;28;20539;-46
2023/07/05 03:14:33;;;;;;;8.48;5.38;;;17.90;99.90;;;;;;4971479;28;20049;-45
2023/07/05 03:17:03;;;;;;;8.77;5.53;;;18.00;99.90;;;;;;4969810;28;20050;-44
2023/07/05 03:19:30;;;;;;;5.93;4.65;;;18.00;99.90;;;;;;4971941;28;20050;-43
2023/07/05 03:21:58;;;;;;;9.05;5.32;;;18.00;99.90;;;;;;4973080;28;20118;-43
2023/07/05 03:24:25;;;;;;;6.00;4.70;;;18.00;99.90;;;;;;4969405;28;20086;-45
2023/07/05 03:26:52;;;;;;;6.53;4.45;;;18.00;99.90;;;;;;4972280;28;20051;-45
2023/07/05 03:29:20;;;;;;;7.15;5.20;;;18.00;99.90;;;;;;4986513;28;20555;-44
2023/07/05 03:31:47;;;;;;;8.48;5.50;;;18.00;99.90;;;;;;4971553;28;20081;-45
2023/07/05 03:34:16;;;;;;;9.75;5.35;;;18.10;99.90;;;;;;4973544;28;20081;-43
2023/07/05 03:36:43;;;;;;;9.05;5.20;;;18.20;99.90;;;;;;4975276;28;20105;-44
2023/07/05 03:39:15;;;;;;;6.38;4.72;;;18.20;99.90;;;;;;4967606;28;20110;-42
2023/07/05 03:41:42;;;;;;;6.35;4.70;;;18.20;99.90;;;;;;4972287;28;20047;-43
2023/07/05 03:44:11;;;;;;;7.80;4.85;;;18.20;99.90;;;;;;4968717;28;20445;-40
2023/07/05 03:46:38;;;;;;;6.80;4.80;;;18.30;99.90;;;;;;4967534;28;20054;-43
2023/07/05 03:49:05;;;;;;;6.28;4.70;;;18.30;99.90;;;;;;4973429;28;20109;-44
2023/07/05 03:51:33;;;;;;;7.10;5.22;;;18.40;99.90;;;;;;4971015;28;20123;-45
2023/07/05 03:54:00;;;;;;;6.63;4.65;;;18.50;99.90;;;;;;4969759;28;20063;-43
2023/07/05 03:56:28;;;;;;;9.93;7.03;;;18.50;99.90;;;;;;4970441;28;20499;-42
2023/07/05 03:58:55;;;;;;;13.52;8.70;;;18.40;99.90;;;;;;4968314;28;20109;-45
2023/07/05 04:01:24;;;;;;;10.80;5.55;;;17.90;99.90;;;;;;4971804;28;20043;-45
2023/07/05 04:03:56;;;;;;;11.82;6.78;;;17.80;99.90;;;;;;4969103;28;20134;-47
2023/07/05 04:06:26;;;;;;;10.73;7.85;;;17.80;99.90;;;;;;4970268;28;20070;-44
2023/07/05 04:08:54;;;;;;;12.55;7.97;;;17.80;99.90;;;;;;4971818;28;20535;-45
2023/07/05 04:11:22;;;;;;;13.88;7.80;;;17.80;99.90;;;;;;4970862;28;20447;-42
2023/07/05 04:13:51;;;;;;;11.38;7.85;;;17.80;99.90;;;;;;4970020;28;20066;-45
2023/07/05 04:16:20;;;;;;;10.88;7.05;;;17.80;99.90;;;;;;4971251;28;20078;-47
2023/07/05 04:18:54;;;;;;;11.32;7.63;;;17.90;99.90;;;;;;4969802;28;20078;-44
2023/07/05 04:21:22;;;;;;;10.07;7.47;;;17.90;99.90;;;;;;4970400;28;20043;-45
2023/07/05 04:23:50;;;;;;;11.35;7.65;;;17.90;99.90;;;;;;4962877;28;20054;-45
2023/07/05 04:26:21;;;;;;;9.48;7.50;;;18.00;99.90;;;;;;4967951;28;20611;-44
2023/07/05 04:28:49;;;;;;;10.77;7.07;;;18.00;99.90;;;;;;4971156;28;20462;-45
2023/07/05 04:31:27;;;;;;;12.00;8.05;;;18.00;99.90;;;;;;4971678;28;20054;-43
2023/07/05 04:33:58;;;;;;;13.00;7.40;;;17.90;99.90;;;;;;4969976;28;20054;-42
2023/07/05 04:36:27;;;;;;;11.05;7.82;;;17.90;99.90;;;;;;4970380;28;20057;-43
2023/07/05 04:39:00;;;;;;;8.95;7.07;;;17.80;99.90;;;;;;4972216;28;20061;-43
2023/07/05 04:41:28;;;;;;;11.52;7.28;;;17.80;99.90;;;;;;4975229;28;20065;-44
2023/07/05 04:43:55;;;;;;;9.63;6.75;;;17.90;99.90;;;;;;4970925;28;20071;-43
2023/07/05 04:46:23;;;;;;;8.80;7.03;;;17.90;99.90;;;;;;4973615;28;20045;-43
2023/07/05 04:48:51;;;;;;;9.23;6.63;;;17.90;99.90;;;;;;4968846;28;20135;-43
2023/07/05 04:51:19;;;;;;;12.10;6.97;;;18.00;99.90;;;;;;4974211;28;20515;-44
2023/07/05 04:53:46;;;;;;;8.57;6.38;;;18.00;99.90;;;;;;4966638;28;20051;-44
2023/07/05 04:56:15;;;;;;;8.50;6.20;;;18.00;99.90;;;;;;4973333;28;20046;-43
2023/07/05 04:58:42;;;;;;;8.18;6.45;;;17.90;99.90;;;;;;4969310;28;20079;-45
2023/07/05 05:01:10;;;;;;;8.98;6.03;;;17.80;99.90;;;;;;4973991;28;20049;-45
2023/07/05 05:03:38;;;;;;;9.18;6.22;;;17.80;99.90;;;;;;4972762;28;20514;-43
2023/07/05 05:06:06;;;;;;;10.27;6.57;;;17.90;99.90;;;;;;4982275;28;20046;-40
2023/07/05 05:08:34;;;;;;;7.82;6.10;;;18.00;99.90;;;;;;4971311;28;20141;-41
2023/07/05 05:11:04;;;;;;;9.20;5.72;;;18.00;99.90;;;;;;4976786;28;20097;-45
2023/07/05 05:13:33;;;;;;;7.80;5.78;;;18.10;99.90;;;;;;4983134;28;20108;-46
2023/07/05 05:16:02;;;;;;;8.65;6.15;;;18.20;99.90;;;;;;4975369;28;20182;-42
2023/07/05 05:18:31;;;;;;;8.10;6.03;;;18.20;99.90;;;;;;4981483;28;20046;-43
2023/07/05 05:20:59;;;;;;;8.65;5.97;;;18.20;99.90;;;;;;4983295;28;20050;-40
2023/07/05 05:23:29;;;;;;;8.98;6.50;;;18.30;99.90;;;;;;4968965;28;20410;-44
2023/07/05 05:25:57;;;;;;;9.75;6.25;;;18.30;99.90;;;;;;4967600;28;20484;-43
2023/07/05 05:28:24;;;;;;;8.60;6.53;;;18.40;99.90;;;;;;4975513;28;20039;-43
2023/07/05 05:30:59;;;;;;;13.05;6.72;;;18.50;99.90;;;;;;4971222;28;20146;-43
2023/07/05 05:33:27;;;;;;;11.45;6.57;;;18.60;99.90;;;;;;4977691;28;20065;-41
2023/07/05 05:35:54;;;;;;;8.18;5.80;;;18.80;99.90;;;;;;4978243;28;20167;-47
2023/07/05 05:38:22;;;;;;;10.13;5.93;;;18.90;99.90;;;;;;4963391;28;20069;-44
2023/07/05 05:40:50;;;;;;;9.05;5.55;;;19.10;99.90;;;;;;4966198;28;20804;-43
2023/07/05 05:43:19;;;;;;;9.77;6.35;;;19.00;99.90;;;;;;4963884;28;20062;-43
2023/07/05 05:45:47;;;;;;;9.32;5.97;;;19.00;99.90;;;;;;4963535;28;20046;-42
2023/07/05 05:48:14;;;;;;;11.75;6.30;;;19.00;99.90;;;;;;4965385;28;20495;-44
2023/07/05 05:50:42;;;;;;;6.60;5.63;;;19.10;99.90;;;;;;4966587;28;20418;-40
2023/07/05 05:53:12;;;;;;;7.93;5.68;;;19.10;99.90;;;;;;4967714;28;20049;-42
2023/07/05 05:55:40;;;;;;;9.85;5.78;;;19.20;99.90;;;;;;4965076;28;20070;-45
2023/07/05 05:58:08;;;;;;;8.65;5.35;;;19.20;99.90;;;;;;4970806;28;20101;-42
2023/07/05 06:00:37;;;;;;;6.93;5.72;;;19.20;99.90;;;;;;4970787;28;20035;-45
2023/07/05 06:03:05;;;;;;;9.30;6.03;;;19.30;99.90;;;;;;4959616;28;20098;-41
2023/07/05 06:05:33;;;;;;;8.30;5.20;;;19.30;99.90;;;;;;4969299;28;20051;-43
2023/07/05 06:08:01;;;;;;;8.43;5.10;;;19.30;99.90;;;;;;4994037;28;20039;-49
2023/07/05 06:10:30;;;;;;;8.45;5.65;;;19.40;99.90;;;;;;4995428;28;20110;-44
2023/07/05 06:12:57;;;;;;;7.97;5.00;;;19.40;99.90;;;;;;4997642;28;20048;-49
2023/07/05 06:15:25;;;;;;;7.15;4.80;;;19.50;99.90;;;;;;5002382;28;20054;-44
2023/07/05 06:17:53;;;;;;;7.30;5.05;;;19.70;99.90;;;;;;4999578;28;20047;-43
2023/07/05 06:20:23;;;;;;;19.63;5.35;;;19.80;99.90;;;;;;4988219;28;20070;-43
2023/07/05 06:22:50;;;;;;;7.90;4.70;;;20.00;99.90;;;;;;4969671;28;20050;-41
2023/07/05 06:25:18;;;;;;;15.18;6.65;;;20.10;99.90;;;;;;4972331;28;20051;-45
2023/07/05 06:27:45;;;;;;;7.63;4.80;;;20.10;99.90;;;;;;4990507;28;20043;-44
2023/07/05 06:30:12;;;;;;;7.25;4.85;;;20.20;99.90;;;;;;4977888;28;20060;-45
2023/07/05 06:32:39;;;;;;;6.22;4.80;;;20.20;99.90;;;;;;4972849;28;20046;-44
2023/07/05 06:35:07;;;;;;;8.82;4.72;;;20.00;99.90;;;;;;4974520;28;20201;-43
2023/07/05 06:37:34;;;;;;;7.03;4.97;;;19.90;99.90;;;;;;4972316;28;20130;-43
2023/07/05 06:40:03;;;;;;;8.27;4.80;;;19.90;99.90;;;;;;4981147;28;20081;-43
2023/07/05 06:42:30;;;;;;;5.78;4.93;;;19.90;99.90;;;;;;4982361;28;20049;-44
2023/07/05 06:45:06;;;;;;;6.28;4.57;;;19.90;99.90;;;;;;4974718;28;20484;-43
2023/07/05 06:47:34;;;;;;;6.07;4.72;;;20.00;99.90;;;;;;4974760;28;20145;-43
2023/07/05 06:50:01;;;;;;;6.53;4.43;;;20.10;99.90;;;;;;4974192;28;21240;-46
2023/07/05 06:52:29;;;;;;;7.95;4.53;;;20.00;99.90;;;;;;4969735;28;20140;-44
2023/07/05 06:54:57;;;;;;;7.30;4.97;;;20.00;99.90;;;;;;4968830;28;20043;-41
2023/07/05 06:57:24;;;;;;;7.10;4.72;;;20.20;99.90;;;;;;4970298;28;20076;-44
2023/07/05 06:59:51;;;;;;;7.45;4.93;;;20.20;99.90;;;;;;4971133;28;20046;-43
2023/07/05 07:02:19;;;;;;;6.22;4.72;;;20.10;99.90;;;;;;4972002;28;20057;-43
2023/07/05 07:04:46;;;;;;;9.20;4.82;;;20.20;99.90;;;;;;4971321;28;20058;-44
2023/07/05 07:07:15;;;;;;;7.53;4.25;;;20.40;99.90;;;;;;4971660;28;20058;-46
2023/07/05 07:09:42;;;;;;;6.60;4.03;;;20.20;99.90;;;;;;4971197;28;20074;-41
2023/07/05 07:12:10;;;;;;;6.28;4.22;;;20.10;99.90;;;;;;4968952;28;20051;-46
2023/07/05 07:14:37;;;;;;;8.43;4.30;;;20.10;99.90;;;;;;4971419;28;20162;-45
2023/07/05 07:17:05;;;;;;;11.80;6.53;;;20.40;99.90;;;;;;4971607;28;20073;-45
2023/07/05 07:19:32;;;;;;;6.70;4.10;;;20.40;99.90;;;;;;4972372;28;20420;-41
2023/07/05 07:21:59;;;;;;;9.05;3.83;;;20.40;99.90;;;;;;4988237;22;20476;-39
2023/07/05 07:24:28;;;;;;;9.18;4.30;;;20.60;99.90;;;;;;4997252;28;20041;-41
2023/07/05 07:26:56;;;;;;;10.05;4.95;;;20.70;99.90;;;;;;4992663;28;20051;-40
2023/07/05 07:29:24;;;;;;;10.95;4.68;;;20.80;99.90;;;;;;4995369;28;20110;-39
2023/07/05 07:31:51;;;;;;;5.47;4.10;;;20.80;99.90;;;;;;4995234;28;20059;-41
2023/07/05 07:34:19;;;;;;;6.25;4.13;;;20.90;99.90;;;;;;4989564;28;20048;-41
2023/07/05 07:36:47;;;;;;;6.97;4.60;;;21.10;99.90;;;;;;4998339;28;20042;-42
2023/07/05 07:39:14;;;;;;;8.07;4.18;;;21.40;99.90;;;;;;4991336;28;20078;-40
2023/07/05 07:41:42;;;;;;;5.63;3.97;;;21.40;99.90;;;;;;4995937;28;20130;-42
2023/07/05 07:44:10;;;;;;;13.32;4.00;;;21.60;99.90;;;;;;4980767;28;20052;-41
2023/07/05 07:46:39;;;;;;;8.70;4.32;;;21.70;99.90;;;;;;4986796;28;20042;-42
2023/07/05 07:49:09;;;;;;;7.20;4.30;;;21.90;99.90;;;;;;4996433;28;20042;-42
2023/07/05 07:51:38;;;;;;;6.45;4.38;;;22.10;99.90;;;;;;4994595;28;20039;-41
2023/07/05 07:54:12;;;;;;;6.13;4.82;;;22.40;99.90;;;;;;4997180;28;20050;-42
2023/07/05 07:56:42;;;;;;;7.38;4.90;;;22.50;99.90;;;;;;4986756;28;20149;-43
2023/07/05 07:59:10;;;;;;;7.35;5.22;;;22.50;99.90;;;;;;4977080;28;20042;-39
2023/07/05 08:01:39;;;;;;;5.60;5.00;;;22.40;99.90;;;;;;4982529;28;20073;-40
2023/07/05 08:04:09;;;;;;;8.70;4.90;;;22.50;99.90;;;;;;4986284;28;20061;-42
2023/07/05 08:06:40;;;;;;;7.00;4.53;;;22.40;99.90;;;;;;4991721;28;20374;-41
2023/07/05 08:09:15;;;;;;;5.07;4.28;;;22.20;99.90;;;;;;4985172;28;20049;-39
2023/07/05 08:11:45;;;;;;;5.65;4.32;;;21.90;99.90;;;;;;4992913;28;20586;-39
2023/07/05 08:14:18;;;;;;;5.55;4.20;;;21.70;99.90;;;;;;4984445;28;20510;-42
2023/07/05 08:16:46;;;;;;;7.32;4.22;;;21.80;99.90;;;;;;4984726;28;20047;-44
2023/07/05 08:19:14;;;;;;;6.22;4.22;;;22.10;99.90;;;;;;4992808;28;20042;-42
2023/07/05 08:21:44;;;;;;;5.72;4.25;;;22.20;99.90;;;;;;4992910;28;20075;-40
2023/07/05 08:24:12;;;;;;;6.35;4.20;;;21.90;99.90;;;;;;5001652;28;20049;-42
2023/07/05 08:26:54;;;;;;;5.50;4.32;;;21.80;99.90;;;;;;4998418;28;20042;-40
2023/07/05 08:29:22;;;;;;;4.82;4.13;;;21.50;99.90;;;;;;4993298;28;20038;-42
2023/07/05 08:31:50;;;;;;;6.47;4.63;;;21.20;99.90;;;;;;4986569;28;20097;-42
2023/07/05 08:34:18;;;;;;;6.68;4.57;;;20.80;99.90;;;;;;4995119;28;20495;-41
2023/07/05 08:36:46;;;;;;;9.98;4.70;;;20.50;99.90;;;;;;4984713;28;20050;-38
2023/07/05 08:39:14;;;;;;;5.90;4.25;;;20.20;99.90;;;;;;4993096;28;20046;-40
2023/07/05 08:41:41;;;;;;;6.93;4.90;;;19.90;99.90;;;;;;4991921;28;20042;-37
2023/07/05 08:44:27;;;;;;;12.18;5.22;;;19.50;99.90;;;;;;4981864;28;20046;-40
2023/07/05 08:47:00;;;;;;;11.10;4.82;;;19.10;99.90;;;;;;4994563;28;20047;-42
2023/07/05 08:49:36;;;;;;;7.63;4.28;;;18.80;99.90;;;;;;4994382;28;20054;-38
2023/07/05 08:52:05;;;;;;;5.95;3.05;;;18.10;99.90;;;;;;4990167;28;20050;-40
2023/07/05 08:54:35;;;;;;;9.10;3.40;;;17.80;99.90;;;;;;4991577;28;20582;-39
2023/07/05 08:57:19;;;;;;;3.80;2.63;;;17.60;99.90;;;;;;4985887;28;20519;-40
2023/07/05 08:59:57;;;;;;;5.07;2.63;;;17.40;99.90;;;;;;4992242;28;20430;-41
2023/07/05 09:02:26;;;;;;;7.57;2.95;;;17.30;99.90;;;;;;4992135;28;20047;-40
2023/07/05 09:04:57;;;;;;;3.97;2.42;;;17.30;99.90;;;;;;4982363;28;20042;-43
2023/07/05 09:07:34;;;;;;;;;;;17.20;99.90;;;;;;4982067;28;20086;-40
2023/07/05 09:10:05;;;;;;;6.80;2.75;;;17.20;99.90;;;;;;4984771;28;19922;-40
2023/07/05 09:12:41;;;;;;;8.65;2.67;;;17.20;99.90;;;;;;4991613;28;20043;-39
2023/07/05 09:15:12;;;;;;;5.70;2.72;;;17.30;99.90;;;;;;5005553;28;20070;-40
2023/07/05 09:17:50;;;;;;;4.60;2.22;;;17.40;99.90;;;;;;4999436;28;20078;-37
2023/07/05 09:20:47;;;;;;;8.38;2.65;;;17.50;99.90;;;;;;4984555;28;20046;-37
2023/07/05 09:23:25;;;;;;;6.43;2.75;;;17.70;99.90;;;;;;5005234;28;20043;-38
2023/07/05 09:26:00;;;;;;;6.03;2.47;;;17.90;99.90;;;;;;4991839;28;20046;-40
2023/07/05 09:28:46;;;;;;;7.50;3.58;;;18.20;99.90;;;;;;4989337;28;20042;-38
2023/07/05 09:31:14;;;;;;;5.63;2.60;;;18.40;99.90;;;;;;4992156;28;20047;-42
2023/07/05 09:33:47;;;;;;;6.70;2.92;;;18.50;99.90;;;;;;5010775;28;20048;-39
2023/07/05 09:36:22;;;;;;;6.65;3.67;;;18.80;99.90;;;;;;4998046;28;20171;-40
2023/07/05 09:39:02;;;;;;;5.93;2.95;;;19.00;99.90;;;;;;5012003;28;20101;-40
2023/07/05 09:41:46;;;;;;;6.28;3.80;;;19.30;99.90;;;;;;5012324;28;20042;-41
2023/07/05 09:44:16;;;;;;;10.70;4.38;;;19.60;99.90;;;;;;4999524;28;20053;-41
2023/07/05 09:46:44;;;;;;;11.05;3.83;;;19.80;99.90;;;;;;4994270;28;20622;-40
2023/07/05 09:49:14;;;;;;;8.25;3.95;;;20.00;99.90;;;;;;4988838;28;20093;-40
2023/07/05 09:51:45;;;;;;;7.30;4.20;;;20.00;99.90;;;;;;4999351;28;20039;-39
2023/07/05 09:54:22;;;;;;;8.82;4.20;;;20.20;99.90;;;;;;4995872;28;20097;-43
2023/07/05 09:56:58;;;;;;;8.35;3.83;;;20.50;99.90;;;;;;4999467;28;20050;-42
2023/07/05 09:59:26;;;;;;;6.82;4.00;;;20.80;99.90;;;;;;4987551;28;20495;-42
2023/07/05 10:02:14;;;;;;;7.30;3.40;;;21.30;99.90;;;;;;4994434;28;20035;-41
2023/07/05 10:04:46;;;;;;;7.65;3.53;;;21.90;99.90;;;;;;4992925;28;20050;-42
2023/07/05 10:07:20;;;;;;;4.63;3.38;;;22.50;99.90;;;;;;4993904;28;20034;-40
2023/07/05 10:10:10;;;;;;;6.13;3.65;;;22.60;99.90;;;;;;4992706;28;20051;-42
2023/07/05 10:12:40;;;;;;;4.75;3.33;;;22.20;99.90;;;;;;4996185;28;20077;-43
2023/07/05 10:15:22;;;;;;;6.00;3.70;;;22.30;99.90;;;;;;4993779;28;20101;-41
2023/07/05 10:17:53;;;;;;;7.57;3.90;;;22.50;99.90;;;;;;4984013;28;20073;-42
2023/07/05 10:20:23;;;;;;;5.50;3.70;;;22.20;99.90;;;;;;4991663;28;20106;-43
2023/07/05 10:23:05;;;;;;;5.85;4.00;;;21.70;99.90;;;;;;4990797;28;20101;-41
2023/07/05 10:25:39;;;;;;;7.72;4.18;;;21.60;99.90;;;;;;4993021;28;20038;-42
2023/07/05 10:28:12;;;;;;;5.28;3.70;;;21.30;99.90;;;;;;4992900;28;20101;-42
2023/07/05 10:31:01;;;;;;;7.00;4.18;;;20.80;99.90;;;;;;4994325;28;20085;-43
2023/07/05 10:33:30;;;;;;;5.43;3.85;;;20.80;99.90;;;;;;4980231;28;20047;-43
2023/07/05 10:36:02;;;;;;;5.82;4.10;;;20.60;99.90;;;;;;4989695;28;20080;-40
2023/07/05 10:38:33;;;;;;;5.65;4.03;;;20.50;99.90;;;;;;4992153;28;20042;-40
2023/07/05 10:41:29;;;;;;;11.38;4.00;;;20.50;99.90;;;;;;4988836;28;20062;-41
2023/07/05 10:44:06;;;;;;;7.53;3.70;;;20.70;99.90;;;;;;4985053;28;20081;-42
2023/07/05 10:46:37;;;;;;;10.35;4.32;;;21.10;99.90;;;;;;4986573;28;20042;-42
2023/07/05 10:49:16;;;;;;;7.53;4.35;;;21.20;99.90;;;;;;4978573;28;20524;-42
2023/07/05 10:52:03;;;;;;;5.97;4.25;;;21.00;99.90;;;;;;4986916;28;20038;-38
2023/07/05 10:55:19;;;;;;;5.07;3.67;;;21.10;99.90;;;;;;4989703;28;20043;-42
2023/07/05 10:58:06;;;;;;;4.50;3.90;;;21.70;99.90;;;;;;4977886;28;20046;-42
2023/07/05 11:00:39;;;;;;;6.00;4.00;;;21.80;99.90;;;;;;4986629;28;20043;-43
2023/07/05 11:03:09;;;;;;;6.68;4.30;;;21.60;99.90;;;;;;4986162;28;20137;-43
2023/07/05 11:05:44;;;;;;;4.53;3.90;;;21.60;99.90;;;;;;4990455;28;20235;-44
2023/07/05 11:08:29;;;;;;;5.85;4.32;;;21.90;99.90;;;;;;4988027;28;20042;-42
2023/07/05 11:11:16;;;;;;;5.00;4.22;;;21.80;99.90;;;;;;4986585;28;20049;-42
2023/07/05 11:13:45;;;;;;;4.95;3.97;;;21.80;99.90;;;;;;4992188;28;20038;-38
2023/07/05 11:16:24;;;;;;;5.47;4.65;;;21.60;99.90;;;;;;4988112;28;20106;-43
2023/07/05 11:19:03;;;;;;;5.45;4.63;;;21.50;99.90;;;;;;4993775;28;20105;-43
2023/07/05 11:21:42;;;;;;;6.38;4.60;;;21.40;99.90;;;;;;4990799;28;20054;-43
2023/07/05 11:24:12;;;;;;;7.45;5.10;;;21.20;99.90;;;;;;4994188;28;20094;-42
2023/07/05 11:26:45;;;;;;;6.85;4.97;;;21.20;99.90;;;;;;4993331;28;20042;-41
2023/07/05 11:29:25;;;;;;;5.95;4.95;;;21.20;99.90;;;;;;4984051;28;20054;-41
2023/07/05 11:31:52;;;;;;;8.02;5.22;;;21.20;99.90;;;;;;4990889;28;20402;-43
2023/07/05 11:34:20;;;;;;;6.97;5.82;;;21.20;99.90;;;;;;4981235;28;20042;-43
2023/07/05 11:36:52;;;;;;;7.72;5.70;;;21.30;99.90;;;;;;4989108;28;20046;-41
2023/07/05 11:39:39;;;;;;;10.00;6.03;;;21.10;99.90;;;;;;4988528;28;20133;-40
2023/07/05 11:42:15;;;;;;;7.78;6.40;;;21.20;99.90;;;;;;4983950;28;20050;-42
2023/07/05 11:44:45;;;;;;;7.53;6.45;;;21.30;99.90;;;;;;4983906;28;20543;-42
2023/07/05 11:47:24;;;;;;;11.30;6.28;;;21.40;99.90;;;;;;4985102;28;20129;-44
2023/07/05 11:50:01;;;;;;;8.25;6.82;;;21.60;99.90;;;;;;4985789;28;20050;-41
2023/07/05 11:52:32;;;;;;;9.07;6.22;;;21.80;99.90;;;;;;4986047;28;20122;-43
2023/07/05 11:55:20;;;;;;;8.90;6.70;;;21.90;99.90;;;;;;4985517;28;20054;-39
2023/07/05 11:57:52;;;;;;;10.25;7.20;;;22.00;99.90;;;;;;4983236;28;20558;-40
2023/07/05 12:00:35;;;;;;;8.35;6.47;;;22.00;99.90;;;;;;4980453;28;20058;-40
2023/07/05 12:03:20;;;;;;;7.50;6.70;;;22.50;99.90;;;;;;4983043;28;20458;-43
2023/07/05 12:05:54;;;;;;;7.20;6.50;;;23.00;99.90;;;;;;4984139;28;20046;-42
2023/07/05 12:08:41;;;;;;;7.43;6.65;;;23.10;99.90;;;;;;4985410;28;20043;-43
2023/07/05 12:11:11;;;;;;;8.32;6.30;;;23.10;99.90;;;;;;4977284;28;20050;-42
2023/07/05 12:13:38;;;;;;;7.15;6.45;;;23.10;99.90;;;;;;4978641;28;20102;-42
2023/07/05 12:16:11;;;;;;;7.40;6.53;;;23.00;99.90;;;;;;4974854;28;20130;-42
2023/07/05 12:18:39;;;;;;;7.97;6.53;;;23.10;99.90;;;;;;4980510;28;20069;-41
2023/07/05 12:21:06;;;;;;;6.55;5.95;;;23.30;99.90;;;;;;4987578;28;20073;-42
2023/07/05 12:23:36;;;;;;;7.47;6.07;;;23.40;99.90;;;;;;4982550;28;20161;-43
2023/07/05 12:26:11;;;;;;;8.10;5.88;;;23.60;99.90;;;;;;4988129;28;20176;-43
2023/07/05 12:28:42;;;;;;;10.27;6.40;;;23.60;99.90;;;;;;4981017;28;20077;-43
2023/07/05 12:31:11;;;;;;;7.45;6.28;;;23.30;99.30;;;;;;4985876;28;20789;-41
2023/07/05 12:33:40;;;;;;;9.15;6.32;;;23.30;99.80;;;;;;4981001;28;20035;-40
2023/07/05 12:36:12;;;;;;;6.80;6.20;;;23.60;98.60;;;;;;4986264;28;20484;-43
2023/07/05 12:38:43;;;;;;;6.63;6.03;;;24.00;99.00;;;;;;4974885;28;20105;-42
2023/07/05 12:41:20;;;;;;;7.13;6.35;;;24.20;99.10;;;;;;4978374;28;20511;-42
2023/07/05 12:43:49;;;;;;;8.52;5.90;;;24.30;99.30;;;;;;4975066;28;20066;-41
2023/07/05 12:46:21;;;;;;;7.30;6.22;;;24.70;96.90;;;;;;4980363;28;20077;-41
2023/07/05 12:48:49;;;;;;;7.18;6.35;;;25.20;96.10;;;;;;4978581;28;20455;-45
2023/07/05 12:51:28;;;;;;;6.65;6.05;;;25.40;94.30;;;;;;4985308;28;20046;-45
2023/07/05 12:54:00;;;;;;;6.95;6.35;;;25.50;92.70;;;;;;4971748;28;20462;-50
2023/07/05 12:56:47;;;;;;;7.40;6.07;;;25.40;94.00;;;;;;5004086;28;20042;-45
2023/07/05 12:59:37;;;;;;;6.47;5.93;;;25.40;92.30;;;;;;4979470;28;20043;-44
2023/07/05 13:02:31;;;;;;;7.82;6.35;;;25.30;89.60;;;;;;4993243;28;20050;-43
2023/07/05 13:04:59;;;;;;;8.65;6.50;;;24.80;90.00;;;;;;4985875;28;20050;-42
2023/07/05 13:07:27;;;;;;;7.22;6.53;;;24.90;91.10;;;;;;4988044;28;20046;-41